sensor_id;sensor_type;location;lat;lon;timestamp;temperature;humidity
47660;DHT22;33403;43.608;1.458;2023-06-19T00:01:19;21.70;99.90
47660;DHT22;33403;43.608;1.458;2023-06-19T00:03:45;21.70;99.90
47660;DHT22;33403;43.608;1.458;2023-06-19T00:06:10;21.70;99.90
47660;DHT22;33403;43.608;1.458;2023-06-19T00:08:38;21.70;99.90
47660;DHT22;33403;43.608;1.458;2023-06-19T00:11:06;21.70;99.90
47660;DHT22;33403;43.608;1.458;2023-06-19T00:13:32;21.60;99.90
47660;DHT22;33403;43.608;1.458;2023-06-19T00:15:59;21.60;99.90
47660;DHT22;33403;43.608;1.458;2023-06-19T00:18:26;21.70;99.90
47660;DHT22;33403;43.608;1.458;2023-06-19T00:20:52;21.60;99.90
47660;DHT22;33403;43.608;1.458;2023-06-19T00:23:19;21.60;99.90
47660;DHT22;33403;43.608;1.458;2023-06-19T00:25:45;21.60;99.90
47660;DHT22;33403;43.608;1.458;2023-06-19T00:28:11;21.60;99.90
47660;DHT22;33403;43.608;1.458;2023-06-19T00:30:40;21.60;99.90
47660;DHT22;33403;43.608;1.458;2023-06-19T00:33:07;21.50;99.90
47660;DHT22;33403;43.608;1.458;2023-06-19T00:35:33;21.40;99.90
47660;DHT22;33403;43.608;1.458;2023-06-19T00:37:58;21.30;99.90
47660;DHT22;33403;43.608;1.458;2023-06-19T00:40:29;21.30;99.90
47660;DHT22;33403;43.608;1.458;2023-06-19T00:42:55;21.20;99.90
47660;DHT22;33403;43.608;1.458;2023-06-19T00:45:21;21.20;99.90
47660;DHT22;33403;43.608;1.458;2023-06-19T00:47:47;21.20;99.90
47660;DHT22;33403;43.608;1.458;2023-06-19T00:50:13;21.20;99.90
47660;DHT22;33403;43.608;1.458;2023-06-19T00:52:39;21.20;99.90
47660;DHT22;33403;43.608;1.458;2023-06-19T00:55:06;21.10;99.90
47660;DHT22;33403;43.608;1.458;2023-06-19T00:57:33;21.10;99.90
47660;DHT22;33403;43.608;1.458;2023-06-19T00:59:58;21.10;99.90
47660;DHT22;33403;43.608;1.458;2023-06-19T01:02:26;21.00;99.90
47660;DHT22;33403;43.608;1.458;2023-06-19T01:04:52;20.90;99.90
47660;DHT22;33403;43.608;1.458;2023-06-19T01:07:22;20.90;99.90
47660;DHT22;33403;43.608;1.458;2023-06-19T01:09:58;20.80;99.90
47660;DHT22;33403;43.608;1.458;2023-06-19T01:12:34;20.70;99.90
47660;DHT22;33403;43.608;1.458;2023-06-19T01:15:03;20.70;99.90
47660;DHT22;33403;43.608;1.458;2023-06-19T01:17:31;20.70;99.90
47660;DHT22;33403;43.608;1.458;2023-06-19T01:19:58;20.60;99.90
47660;DHT22;33403;43.608;1.458;2023-06-19T01:24:53;20.60;99.90
47660;DHT22;33403;43.608;1.458;2023-06-19T01:27:19;20.60;99.90
47660;DHT22;33403;43.608;1.458;2023-06-19T01:29:44;20.50;99.90
47660;DHT22;33403;43.608;1.458;2023-06-19T01:32:14;20.50;99.90
47660;DHT22;33403;43.608;1.458;2023-06-19T01:34:41;20.60;99.90
47660;DHT22;33403;43.608;1.458;2023-06-19T01:37:09;20.60;99.90
47660;DHT22;33403;43.608;1.458;2023-06-19T01:39:36;20.50;99.90
47660;DHT22;33403;43.608;1.458;2023-06-19T01:42:04;20.50;99.90
47660;DHT22;33403;43.608;1.458;2023-06-19T01:44:30;20.50;99.90
47660;DHT22;33403;43.608;1.458;2023-06-19T01:46:55;20.50;99.90
47660;DHT22;33403;43.608;1.458;2023-06-19T01:49:21;20.50;99.90
47660;DHT22;33403;43.608;1.458;2023-06-19T01:51:47;20.50;99.90
47660;DHT22;33403;43.608;1.458;2023-06-19T01:54:12;20.50;99.90
47660;DHT22;33403;43.608;1.458;2023-06-19T01:56:38;20.40;99.90
47660;DHT22;33403;43.608;1.458;2023-06-19T01:59:04;20.40;99.90
47660;DHT22;33403;43.608;1.458;2023-06-19T02:01:30;20.40;99.90
47660;DHT22;33403;43.608;1.458;2023-06-19T02:03:55;20.30;99.90
47660;DHT22;33403;43.608;1.458;2023-06-19T02:06:21;20.30;99.90
47660;DHT22;33403;43.608;1.458;2023-06-19T02:08:49;20.20;99.90
47660;DHT22;33403;43.608;1.458;2023-06-19T02:11:15;20.20;99.90
47660;DHT22;33403;43.608;1.458;2023-06-19T02:13:42;20.20;99.90
47660;DHT22;33403;43.608;1.458;2023-06-19T02:16:07;20.30;99.90
47660;DHT22;33403;43.608;1.458;2023-06-19T02:18:33;20.30;99.90
47660;DHT22;33403;43.608;1.458;2023-06-19T02:20:58;20.30;99.90
47660;DHT22;33403;43.608;1.458;2023-06-19T02:23:24;20.30;99.90
47660;DHT22;33403;43.608;1.458;2023-06-19T02:25:50;20.20;99.90
47660;DHT22;33403;43.608;1.458;2023-06-19T02:28:15;20.20;99.90
47660;DHT22;33403;43.608;1.458;2023-06-19T02:30:41;20.20;99.90
47660;DHT22;33403;43.608;1.458;2023-06-19T02:33:07;20.20;99.90
47660;DHT22;33403;43.608;1.458;2023-06-19T02:35:33;20.30;99.90
47660;DHT22;33403;43.608;1.458;2023-06-19T02:37:58;20.30;99.90
47660;DHT22;33403;43.608;1.458;2023-06-19T02:40:24;20.40;99.90
47660;DHT22;33403;43.608;1.458;2023-06-19T02:42:49;20.30;99.90
47660;DHT22;33403;43.608;1.458;2023-06-19T02:45:15;20.40;99.90
47660;DHT22;33403;43.608;1.458;2023-06-19T02:47:42;20.40;99.90
47660;DHT22;33403;43.608;1.458;2023-06-19T02:50:07;20.40;99.90
47660;DHT22;33403;43.608;1.458;2023-06-19T02:52:33;20.40;99.90
47660;DHT22;33403;43.608;1.458;2023-06-19T02:54:59;20.30;99.90
47660;DHT22;33403;43.608;1.458;2023-06-19T02:57:24;20.30;99.90
47660;DHT22;33403;43.608;1.458;2023-06-19T02:59:50;20.30;99.90
47660;DHT22;33403;43.608;1.458;2023-06-19T03:02:16;20.30;99.90
47660;DHT22;33403;43.608;1.458;2023-06-19T03:04:42;20.30;99.90
47660;DHT22;33403;43.608;1.458;2023-06-19T03:07:08;20.30;99.90
47660;DHT22;33403;43.608;1.458;2023-06-19T03:09:33;20.30;99.90
47660;DHT22;33403;43.608;1.458;2023-06-19T03:11:59;20.30;99.90
47660;DHT22;33403;43.608;1.458;2023-06-19T03:14:25;20.20;99.90
47660;DHT22;33403;43.608;1.458;2023-06-19T03:16:50;20.20;99.90
47660;DHT22;33403;43.608;1.458;2023-06-19T03:19:16;20.10;99.90
47660;DHT22;33403;43.608;1.458;2023-06-19T03:21:41;20.10;99.90
47660;DHT22;33403;43.608;1.458;2023-06-19T03:24:07;20.20;99.90
47660;DHT22;33403;43.608;1.458;2023-06-19T03:26:33;20.20;99.90
47660;DHT22;33403;43.608;1.458;2023-06-19T03:28:59;20.20;99.90
47660;DHT22;33403;43.608;1.458;2023-06-19T03:31:25;20.10;99.90
47660;DHT22;33403;43.608;1.458;2023-06-19T03:33:50;20.10;99.90
47660;DHT22;33403;43.608;1.458;2023-06-19T03:36:16;20.10;99.90
47660;DHT22;33403;43.608;1.458;2023-06-19T03:38:41;20.10;99.90
47660;DHT22;33403;43.608;1.458;2023-06-19T03:41:07;20.10;99.90
47660;DHT22;33403;43.608;1.458;2023-06-19T03:43:33;20.00;99.90
47660;DHT22;33403;43.608;1.458;2023-06-19T03:45:58;20.00;99.90
47660;DHT22;33403;43.608;1.458;2023-06-19T03:48:24;20.10;99.90
47660;DHT22;33403;43.608;1.458;2023-06-19T03:50:50;20.10;99.90
47660;DHT22;33403;43.608;1.458;2023-06-19T03:53:15;20.10;99.90
47660;DHT22;33403;43.608;1.458;2023-06-19T03:55:41;20.10;99.90
47660;DHT22;33403;43.608;1.458;2023-06-19T03:58:07;20.10;99.90
47660;DHT22;33403;43.608;1.458;2023-06-19T04:00:32;20.10;99.90
47660;DHT22;33403;43.608;1.458;2023-06-19T04:02:58;20.10;99.90
47660;DHT22;33403;43.608;1.458;2023-06-19T04:05:24;20.10;99.90
47660;DHT22;33403;43.608;1.458;2023-06-19T04:07:50;20.10;99.90
47660;DHT22;33403;43.608;1.458;2023-06-19T04:10:16;20.10;99.90
47660;DHT22;33403;43.608;1.458;2023-06-19T04:12:42;20.10;99.90
47660;DHT22;33403;43.608;1.458;2023-06-19T04:15:08;20.10;99.90
47660;DHT22;33403;43.608;1.458;2023-06-19T04:17:34;20.10;99.90
47660;DHT22;33403;43.608;1.458;2023-06-19T04:19:59;20.10;99.90
47660;DHT22;33403;43.608;1.458;2023-06-19T04:22:25;20.20;99.90
47660;DHT22;33403;43.608;1.458;2023-06-19T04:24:50;20.20;99.90
47660;DHT22;33403;43.608;1.458;2023-06-19T04:27:16;20.20;99.90
47660;DHT22;33403;43.608;1.458;2023-06-19T04:29:42;20.20;99.90
47660;DHT22;33403;43.608;1.458;2023-06-19T04:32:07;20.20;99.90
47660;DHT22;33403;43.608;1.458;2023-06-19T04:34:41;20.20;99.90
47660;DHT22;33403;43.608;1.458;2023-06-19T04:37:11;20.30;99.90
47660;DHT22;33403;43.608;1.458;2023-06-19T04:39:37;20.20;99.90
47660;DHT22;33403;43.608;1.458;2023-06-19T04:42:03;20.20;99.90
47660;DHT22;33403;43.608;1.458;2023-06-19T04:44:28;20.30;99.90
47660;DHT22;33403;43.608;1.458;2023-06-19T04:47:01;20.20;99.90
47660;DHT22;33403;43.608;1.458;2023-06-19T04:49:30;20.20;99.90
47660;DHT22;33403;43.608;1.458;2023-06-19T04:51:57;20.20;99.90
47660;DHT22;33403;43.608;1.458;2023-06-19T04:54:22;20.20;99.90
47660;DHT22;33403;43.608;1.458;2023-06-19T04:56:48;20.20;99.90
47660;DHT22;33403;43.608;1.458;2023-06-19T04:59:14;20.20;99.90
47660;DHT22;33403;43.608;1.458;2023-06-19T05:01:43;20.20;99.90
47660;DHT22;33403;43.608;1.458;2023-06-19T05:04:09;20.20;99.90
47660;DHT22;33403;43.608;1.458;2023-06-19T05:06:36;20.20;99.90
47660;DHT22;33403;43.608;1.458;2023-06-19T05:09:02;20.20;99.90
47660;DHT22;33403;43.608;1.458;2023-06-19T05:11:28;20.20;99.90
47660;DHT22;33403;43.608;1.458;2023-06-19T05:13:54;20.20;99.90
47660;DHT22;33403;43.608;1.458;2023-06-19T05:16:19;20.30;99.90
47660;DHT22;33403;43.608;1.458;2023-06-19T05:18:45;20.20;99.90
47660;DHT22;33403;43.608;1.458;2023-06-19T05:21:11;20.20;99.90
47660;DHT22;33403;43.608;1.458;2023-06-19T05:23:37;20.20;99.90
47660;DHT22;33403;43.608;1.458;2023-06-19T05:26:06;20.20;99.90
47660;DHT22;33403;43.608;1.458;2023-06-19T05:28:32;20.20;99.90
47660;DHT22;33403;43.608;1.458;2023-06-19T05:30:58;20.20;99.90
47660;DHT22;33403;43.608;1.458;2023-06-19T05:33:23;20.20;99.90
47660;DHT22;33403;43.608;1.458;2023-06-19T05:35:49;20.20;99.90
47660;DHT22;33403;43.608;1.458;2023-06-19T05:38:20;20.10;99.90
47660;DHT22;33403;43.608;1.458;2023-06-19T05:40:46;20.20;99.90
47660;DHT22;33403;43.608;1.458;2023-06-19T05:43:11;20.20;99.90
47660;DHT22;33403;43.608;1.458;2023-06-19T05:45:38;20.20;99.90
47660;DHT22;33403;43.608;1.458;2023-06-19T05:48:04;20.20;99.90
47660;DHT22;33403;43.608;1.458;2023-06-19T05:50:29;20.20;99.90
47660;DHT22;33403;43.608;1.458;2023-06-19T05:52:56;20.30;99.90
47660;DHT22;33403;43.608;1.458;2023-06-19T05:55:22;20.40;99.90
47660;DHT22;33403;43.608;1.458;2023-06-19T05:57:47;20.50;99.90
47660;DHT22;33403;43.608;1.458;2023-06-19T06:00:14;20.50;99.90
47660;DHT22;33403;43.608;1.458;2023-06-19T06:02:40;20.60;99.90
47660;DHT22;33403;43.608;1.458;2023-06-19T06:05:07;20.70;99.90
47660;DHT22;33403;43.608;1.458;2023-06-19T06:07:34;20.80;99.90
47660;DHT22;33403;43.608;1.458;2023-06-19T06:10:00;20.80;99.90
47660;DHT22;33403;43.608;1.458;2023-06-19T06:12:25;20.90;99.90
47660;DHT22;33403;43.608;1.458;2023-06-19T06:14:51;20.90;99.90
47660;DHT22;33403;43.608;1.458;2023-06-19T06:17:16;20.90;99.90
47660;DHT22;33403;43.608;1.458;2023-06-19T06:19:42;21.00;99.90
47660;DHT22;33403;43.608;1.458;2023-06-19T06:22:08;21.00;99.90
47660;DHT22;33403;43.608;1.458;2023-06-19T06:24:33;21.00;99.90
47660;DHT22;33403;43.608;1.458;2023-06-19T06:26:59;21.10;99.90
47660;DHT22;33403;43.608;1.458;2023-06-19T06:29:25;21.20;99.90
47660;DHT22;33403;43.608;1.458;2023-06-19T06:31:50;21.30;99.90
47660;DHT22;33403;43.608;1.458;2023-06-19T06:34:18;21.30;99.90
47660;DHT22;33403;43.608;1.458;2023-06-19T06:36:45;21.40;99.90
47660;DHT22;33403;43.608;1.458;2023-06-19T06:39:10;21.40;99.90
47660;DHT22;33403;43.608;1.458;2023-06-19T06:41:36;21.40;99.90
47660;DHT22;33403;43.608;1.458;2023-06-19T06:44:02;21.40;99.90
47660;DHT22;33403;43.608;1.458;2023-06-19T06:46:28;21.40;99.90
47660;DHT22;33403;43.608;1.458;2023-06-19T06:48:53;21.40;99.90
47660;DHT22;33403;43.608;1.458;2023-06-19T06:51:19;21.50;99.90
47660;DHT22;33403;43.608;1.458;2023-06-19T06:53:45;21.60;99.90
47660;DHT22;33403;43.608;1.458;2023-06-19T06:56:10;21.50;99.90
47660;DHT22;33403;43.608;1.458;2023-06-19T06:58:36;21.50;99.90
47660;DHT22;33403;43.608;1.458;2023-06-19T07:01:02;21.50;99.90
47660;DHT22;33403;43.608;1.458;2023-06-19T07:03:28;21.50;99.90
47660;DHT22;33403;43.608;1.458;2023-06-19T07:05:57;21.40;99.90
47660;DHT22;33403;43.608;1.458;2023-06-19T07:08:22;21.40;99.90
47660;DHT22;33403;43.608;1.458;2023-06-19T07:10:49;21.40;99.90
47660;DHT22;33403;43.608;1.458;2023-06-19T07:13:14;21.30;99.90
47660;DHT22;33403;43.608;1.458;2023-06-19T07:15:40;21.30;99.90
47660;DHT22;33403;43.608;1.458;2023-06-19T07:18:06;21.30;99.90
47660;DHT22;33403;43.608;1.458;2023-06-19T07:20:32;21.30;99.90
47660;DHT22;33403;43.608;1.458;2023-06-19T07:22:57;21.30;99.90
47660;DHT22;33403;43.608;1.458;2023-06-19T07:25:23;21.30;99.90
47660;DHT22;33403;43.608;1.458;2023-06-19T07:27:50;21.20;99.90
47660;DHT22;33403;43.608;1.458;2023-06-19T07:30:16;21.20;99.90
47660;DHT22;33403;43.608;1.458;2023-06-19T07:32:42;21.20;99.90
47660;DHT22;33403;43.608;1.458;2023-06-19T07:35:08;21.20;99.90
47660;DHT22;33403;43.608;1.458;2023-06-19T07:37:34;21.20;99.90
47660;DHT22;33403;43.608;1.458;2023-06-19T07:39:59;21.20;99.90
47660;DHT22;33403;43.608;1.458;2023-06-19T07:42:26;21.10;99.90
47660;DHT22;33403;43.608;1.458;2023-06-19T07:44:52;21.20;99.90
47660;DHT22;33403;43.608;1.458;2023-06-19T07:47:17;21.20;99.90
47660;DHT22;33403;43.608;1.458;2023-06-19T07:49:44;21.20;99.90
47660;DHT22;33403;43.608;1.458;2023-06-19T07:52:10;21.20;99.90
47660;DHT22;33403;43.608;1.458;2023-06-19T07:54:36;21.20;99.90
47660;DHT22;33403;43.608;1.458;2023-06-19T07:57:02;21.30;99.90
47660;DHT22;33403;43.608;1.458;2023-06-19T07:59:27;21.50;99.90
47660;DHT22;33403;43.608;1.458;2023-06-19T08:01:53;21.80;99.90
47660;DHT22;33403;43.608;1.458;2023-06-19T08:04:19;22.00;99.90
47660;DHT22;33403;43.608;1.458;2023-06-19T08:06:44;22.10;99.90
47660;DHT22;33403;43.608;1.458;2023-06-19T08:09:10;22.10;99.90
47660;DHT22;33403;43.608;1.458;2023-06-19T08:11:35;22.20;99.90
47660;DHT22;33403;43.608;1.458;2023-06-19T08:14:02;22.40;99.90
47660;DHT22;33403;43.608;1.458;2023-06-19T08:16:28;22.60;99.90
47660;DHT22;33403;43.608;1.458;2023-06-19T08:18:54;23.00;99.90
47660;DHT22;33403;43.608;1.458;2023-06-19T08:21:19;23.40;99.90
47660;DHT22;33403;43.608;1.458;2023-06-19T08:23:47;23.70;99.90
47660;DHT22;33403;43.608;1.458;2023-06-19T08:26:13;23.60;99.90
47660;DHT22;33403;43.608;1.458;2023-06-19T08:28:39;23.50;99.90
47660;DHT22;33403;43.608;1.458;2023-06-19T08:31:06;23.20;99.90
47660;DHT22;33403;43.608;1.458;2023-06-19T08:33:34;23.30;99.90
47660;DHT22;33403;43.608;1.458;2023-06-19T08:36:00;23.30;99.90
47660;DHT22;33403;43.608;1.458;2023-06-19T08:38:26;23.40;99.90
47660;DHT22;33403;43.608;1.458;2023-06-19T08:40:51;23.40;99.90
47660;DHT22;33403;43.608;1.458;2023-06-19T08:43:17;23.30;99.90
47660;DHT22;33403;43.608;1.458;2023-06-19T08:45:43;23.10;99.90
47660;DHT22;33403;43.608;1.458;2023-06-19T08:48:13;22.90;99.90
47660;DHT22;33403;43.608;1.458;2023-06-19T08:50:39;22.90;99.90
47660;DHT22;33403;43.608;1.458;2023-06-19T08:53:04;22.80;99.90
47660;DHT22;33403;43.608;1.458;2023-06-19T08:55:30;22.70;99.90
47660;DHT22;33403;43.608;1.458;2023-06-19T08:57:56;22.70;99.90
47660;DHT22;33403;43.608;1.458;2023-06-19T09:00:25;22.70;99.90
47660;DHT22;33403;43.608;1.458;2023-06-19T09:02:52;22.60;99.90
47660;DHT22;33403;43.608;1.458;2023-06-19T09:05:18;22.60;99.90
47660;DHT22;33403;43.608;1.458;2023-06-19T09:07:57;22.60;99.90
47660;DHT22;33403;43.608;1.458;2023-06-19T09:10:23;22.60;99.90
47660;DHT22;33403;43.608;1.458;2023-06-19T09:13:04;22.60;99.90
47660;DHT22;33403;43.608;1.458;2023-06-19T09:15:36;22.50;99.90
47660;DHT22;33403;43.608;1.458;2023-06-19T09:18:02;22.40;99.90
47660;DHT22;33403;43.608;1.458;2023-06-19T09:20:28;22.30;99.90
47660;DHT22;33403;43.608;1.458;2023-06-19T09:22:55;22.30;99.90
47660;DHT22;33403;43.608;1.458;2023-06-19T09:25:21;22.20;99.90
47660;DHT22;33403;43.608;1.458;2023-06-19T09:27:49;22.20;99.90
47660;DHT22;33403;43.608;1.458;2023-06-19T09:30:17;22.20;99.90
47660;DHT22;33403;43.608;1.458;2023-06-19T09:32:43;22.10;99.90
47660;DHT22;33403;43.608;1.458;2023-06-19T09:35:09;22.10;99.90
47660;DHT22;33403;43.608;1.458;2023-06-19T09:37:35;22.20;99.90
47660;DHT22;33403;43.608;1.458;2023-06-19T09:40:03;22.20;99.90
47660;DHT22;33403;43.608;1.458;2023-06-19T09:42:43;22.20;99.90
47660;DHT22;33403;43.608;1.458;2023-06-19T09:45:11;22.40;99.90
47660;DHT22;33403;43.608;1.458;2023-06-19T09:47:47;22.40;99.90
47660;DHT22;33403;43.608;1.458;2023-06-19T09:50:17;22.40;99.90
47660;DHT22;33403;43.608;1.458;2023-06-19T09:52:43;22.40;99.90
47660;DHT22;33403;43.608;1.458;2023-06-19T09:55:11;22.40;99.90
47660;DHT22;33403;43.608;1.458;2023-06-19T09:57:41;22.50;99.90
47660;DHT22;33403;43.608;1.458;2023-06-19T10:00:09;22.60;99.90
47660;DHT22;33403;43.608;1.458;2023-06-19T10:02:42;22.90;99.90
47660;DHT22;33403;43.608;1.458;2023-06-19T10:05:08;23.00;99.90
47660;DHT22;33403;43.608;1.458;2023-06-19T10:07:37;23.10;99.90
47660;DHT22;33403;43.608;1.458;2023-06-19T10:10:09;23.10;99.90
47660;DHT22;33403;43.608;1.458;2023-06-19T10:12:45;23.20;99.90
47660;DHT22;33403;43.608;1.458;2023-06-19T10:15:22;23.10;99.90
47660;DHT22;33403;43.608;1.458;2023-06-19T10:17:53;23.20;99.90
47660;DHT22;33403;43.608;1.458;2023-06-19T10:20:29;23.20;99.90
47660;DHT22;33403;43.608;1.458;2023-06-19T10:25:26;23.30;99.90
47660;DHT22;33403;43.608;1.458;2023-06-19T10:27:52;23.20;99.90
47660;DHT22;33403;43.608;1.458;2023-06-19T10:30:19;23.10;99.90
47660;DHT22;33403;43.608;1.458;2023-06-19T10:32:46;23.10;99.90
47660;DHT22;33403;43.608;1.458;2023-06-19T10:35:12;23.10;99.90
47660;DHT22;33403;43.608;1.458;2023-06-19T10:37:38;23.00;99.90
47660;DHT22;33403;43.608;1.458;2023-06-19T10:40:04;22.90;99.90
47660;DHT22;33403;43.608;1.458;2023-06-19T10:42:34;22.90;99.90
47660;DHT22;33403;43.608;1.458;2023-06-19T10:45:03;23.00;99.90
47660;DHT22;33403;43.608;1.458;2023-06-19T10:47:29;23.00;99.90
47660;DHT22;33403;43.608;1.458;2023-06-19T10:49:54;23.10;99.90
47660;DHT22;33403;43.608;1.458;2023-06-19T10:52:20;23.10;99.90
47660;DHT22;33403;43.608;1.458;2023-06-19T10:54:46;23.10;99.90
47660;DHT22;33403;43.608;1.458;2023-06-19T10:57:18;23.30;99.90
47660;DHT22;33403;43.608;1.458;2023-06-19T10:59:43;23.50;99.90
47660;DHT22;33403;43.608;1.458;2023-06-19T11:02:09;23.70;99.90
47660;DHT22;33403;43.608;1.458;2023-06-19T11:04:37;23.80;99.90
47660;DHT22;33403;43.608;1.458;2023-06-19T11:07:05;23.90;99.90
47660;DHT22;33403;43.608;1.458;2023-06-19T11:09:31;24.00;99.90
47660;DHT22;33403;43.608;1.458;2023-06-19T11:11:57;24.00;99.90
47660;DHT22;33403;43.608;1.458;2023-06-19T11:14:29;24.10;99.90
47660;DHT22;33403;43.608;1.458;2023-06-19T11:16:55;24.10;99.90
47660;DHT22;33403;43.608;1.458;2023-06-19T11:19:21;24.10;99.90
47660;DHT22;33403;43.608;1.458;2023-06-19T11:21:52;24.20;99.90
47660;DHT22;33403;43.608;1.458;2023-06-19T11:24:18;24.40;99.90
47660;DHT22;33403;43.608;1.458;2023-06-19T11:26:47;24.50;99.90
47660;DHT22;33403;43.608;1.458;2023-06-19T11:29:17;24.30;99.90
47660;DHT22;33403;43.608;1.458;2023-06-19T11:31:44;24.30;99.90
47660;DHT22;33403;43.608;1.458;2023-06-19T11:34:10;24.10;99.90
47660;DHT22;33403;43.608;1.458;2023-06-19T11:36:37;24.10;99.90
47660;DHT22;33403;43.608;1.458;2023-06-19T11:39:03;24.10;99.90
47660;DHT22;33403;43.608;1.458;2023-06-19T11:41:32;24.20;99.90
47660;DHT22;33403;43.608;1.458;2023-06-19T11:44:08;24.20;99.90
47660;DHT22;33403;43.608;1.458;2023-06-19T11:46:37;24.20;99.90
47660;DHT22;33403;43.608;1.458;2023-06-19T11:49:12;24.10;99.90
47660;DHT22;33403;43.608;1.458;2023-06-19T11:51:39;24.20;99.90
47660;DHT22;33403;43.608;1.458;2023-06-19T11:54:07;24.20;99.90
47660;DHT22;33403;43.608;1.458;2023-06-19T11:56:34;24.10;99.90
47660;DHT22;33403;43.608;1.458;2023-06-19T11:59:01;24.00;99.90
47660;DHT22;33403;43.608;1.458;2023-06-19T12:01:27;23.90;99.90
47660;DHT22;33403;43.608;1.458;2023-06-19T12:03:52;23.90;99.90
47660;DHT22;33403;43.608;1.458;2023-06-19T12:06:18;24.00;99.90
47660;DHT22;33403;43.608;1.458;2023-06-19T12:08:44;24.00;99.90
47660;DHT22;33403;43.608;1.458;2023-06-19T12:11:09;24.00;99.90
47660;DHT22;33403;43.608;1.458;2023-06-19T12:13:36;24.10;99.90
47660;DHT22;33403;43.608;1.458;2023-06-19T12:16:01;24.10;99.90
47660;DHT22;33403;43.608;1.458;2023-06-19T12:18:29;24.00;99.90
47660;DHT22;33403;43.608;1.458;2023-06-19T12:20:55;24.00;99.90
47660;DHT22;33403;43.608;1.458;2023-06-19T12:23:21;23.90;99.90
47660;DHT22;33403;43.608;1.458;2023-06-19T12:25:46;23.90;99.90
47660;DHT22;33403;43.608;1.458;2023-06-19T12:28:12;23.80;99.90
47660;DHT22;33403;43.608;1.458;2023-06-19T12:30:42;23.60;99.90
47660;DHT22;33403;43.608;1.458;2023-06-19T12:33:07;23.50;99.90
47660;DHT22;33403;43.608;1.458;2023-06-19T12:35:33;23.50;99.90
47660;DHT22;33403;43.608;1.458;2023-06-19T12:37:59;23.40;99.90
47660;DHT22;33403;43.608;1.458;2023-06-19T12:40:24;23.30;99.90
47660;DHT22;33403;43.608;1.458;2023-06-19T12:42:50;23.30;99.90
47660;DHT22;33403;43.608;1.458;2023-06-19T12:45:16;23.30;99.90
47660;DHT22;33403;43.608;1.458;2023-06-19T12:47:41;23.20;99.90
47660;DHT22;33403;43.608;1.458;2023-06-19T12:50:07;23.20;99.90
47660;DHT22;33403;43.608;1.458;2023-06-19T12:52:33;23.10;99.90
47660;DHT22;33403;43.608;1.458;2023-06-19T12:54:59;23.00;99.90
47660;DHT22;33403;43.608;1.458;2023-06-19T12:57:26;23.00;99.90
47660;DHT22;33403;43.608;1.458;2023-06-19T12:59:52;22.90;99.90
47660;DHT22;33403;43.608;1.458;2023-06-19T13:02:17;22.80;99.90
47660;DHT22;33403;43.608;1.458;2023-06-19T13:04:43;22.70;99.90
47660;DHT22;33403;43.608;1.458;2023-06-19T13:07:09;22.70;99.90
47660;DHT22;33403;43.608;1.458;2023-06-19T13:09:34;22.70;99.90
47660;DHT22;33403;43.608;1.458;2023-06-19T13:12:01;22.80;99.90
47660;DHT22;33403;43.608;1.458;2023-06-19T13:14:27;22.70;99.90
47660;DHT22;33403;43.608;1.458;2023-06-19T13:16:53;22.70;99.90
47660;DHT22;33403;43.608;1.458;2023-06-19T13:19:19;22.70;99.90
47660;DHT22;33403;43.608;1.458;2023-06-19T13:21:45;22.70;99.90
47660;DHT22;33403;43.608;1.458;2023-06-19T13:24:10;22.70;99.90
47660;DHT22;33403;43.608;1.458;2023-06-19T13:26:36;22.70;99.90
47660;DHT22;33403;43.608;1.458;2023-06-19T13:29:02;22.70;99.90
47660;DHT22;33403;43.608;1.458;2023-06-19T13:31:28;22.70;99.90
47660;DHT22;33403;43.608;1.458;2023-06-19T13:33:54;22.70;99.90
47660;DHT22;33403;43.608;1.458;2023-06-19T13:36:19;22.70;99.90
47660;DHT22;33403;43.608;1.458;2023-06-19T13:38:46;22.70;99.90
47660;DHT22;33403;43.608;1.458;2023-06-19T13:41:12;22.70;99.90
47660;DHT22;33403;43.608;1.458;2023-06-19T13:43:38;22.70;99.90
47660;DHT22;33403;43.608;1.458;2023-06-19T13:46:06;22.70;99.90
47660;DHT22;33403;43.608;1.458;2023-06-19T13:48:32;22.70;99.90
47660;DHT22;33403;43.608;1.458;2023-06-19T13:50:59;22.80;99.90
47660;DHT22;33403;43.608;1.458;2023-06-19T13:53:25;22.80;99.90
47660;DHT22;33403;43.608;1.458;2023-06-19T13:55:54;22.80;99.90
47660;DHT22;33403;43.608;1.458;2023-06-19T13:58:19;22.80;99.90
47660;DHT22;33403;43.608;1.458;2023-06-19T14:00:45;22.80;99.90
47660;DHT22;33403;43.608;1.458;2023-06-19T14:03:11;22.80;99.90
47660;DHT22;33403;43.608;1.458;2023-06-19T14:05:36;22.80;99.90
47660;DHT22;33403;43.608;1.458;2023-06-19T14:08:04;22.90;99.90
47660;DHT22;33403;43.608;1.458;2023-06-19T14:10:29;23.00;99.90
47660;DHT22;33403;43.608;1.458;2023-06-19T14:12:55;23.00;99.90
47660;DHT22;33403;43.608;1.458;2023-06-19T14:15:21;23.00;99.90
47660;DHT22;33403;43.608;1.458;2023-06-19T14:17:46;23.10;99.90
47660;DHT22;33403;43.608;1.458;2023-06-19T14:20:12;23.10;99.90
47660;DHT22;33403;43.608;1.458;2023-06-19T14:22:38;23.20;99.90
47660;DHT22;33403;43.608;1.458;2023-06-19T14:25:04;23.30;99.90
47660;DHT22;33403;43.608;1.458;2023-06-19T14:27:29;23.40;99.90
47660;DHT22;33403;43.608;1.458;2023-06-19T14:29:55;23.50;99.90
47660;DHT22;33403;43.608;1.458;2023-06-19T14:32:22;23.60;99.90
47660;DHT22;33403;43.608;1.458;2023-06-19T14:34:49;23.60;99.90
47660;DHT22;33403;43.608;1.458;2023-06-19T14:37:14;23.50;99.90
47660;DHT22;33403;43.608;1.458;2023-06-19T14:39:40;23.50;99.90
47660;DHT22;33403;43.608;1.458;2023-06-19T14:42:06;23.40;99.90
47660;DHT22;33403;43.608;1.458;2023-06-19T14:44:32;23.40;99.90
47660;DHT22;33403;43.608;1.458;2023-06-19T14:47:00;23.40;99.90
47660;DHT22;33403;43.608;1.458;2023-06-19T14:49:26;23.40;99.90
47660;DHT22;33403;43.608;1.458;2023-06-19T14:51:52;23.30;99.90
47660;DHT22;33403;43.608;1.458;2023-06-19T14:54:17;23.30;99.90
47660;DHT22;33403;43.608;1.458;2023-06-19T14:56:44;23.20;99.90
47660;DHT22;33403;43.608;1.458;2023-06-19T14:59:10;23.20;99.90
47660;DHT22;33403;43.608;1.458;2023-06-19T15:01:36;23.30;99.90
47660;DHT22;33403;43.608;1.458;2023-06-19T15:04:01;23.40;99.90
47660;DHT22;33403;43.608;1.458;2023-06-19T15:06:27;23.50;99.90
47660;DHT22;33403;43.608;1.458;2023-06-19T15:08:53;23.50;99.90
47660;DHT22;33403;43.608;1.458;2023-06-19T15:11:18;23.50;99.90
47660;DHT22;33403;43.608;1.458;2023-06-19T15:13:44;23.50;99.90
47660;DHT22;33403;43.608;1.458;2023-06-19T15:16:10;23.50;99.90
47660;DHT22;33403;43.608;1.458;2023-06-19T15:18:38;23.40;99.90
47660;DHT22;33403;43.608;1.458;2023-06-19T15:21:03;23.40;99.90
47660;DHT22;33403;43.608;1.458;2023-06-19T15:23:31;23.40;99.90
47660;DHT22;33403;43.608;1.458;2023-06-19T15:25:57;23.40;99.90
47660;DHT22;33403;43.608;1.458;2023-06-19T15:28:22;23.40;99.90
47660;DHT22;33403;43.608;1.458;2023-06-19T15:30:48;23.50;99.90